Terminal Aerodrome Forecast
Issued by NWS Jacksonville, FL

Home | Current Version | Previous Version | Text Only | Print | Product List | Glossary On
Versions: 1 2 3 4 5 6 7 8 9 10 11 12 13 14 15 16 17 18
990
FTUS42 KJAX 010128 AAA
TAFGNV
TAF AMD
KGNV 010128Z 0101/0124 14012KT P6SM VCTS SCT030 BKN060CB
     FM010300 15008KT P6SM SCT025
     FM010800 16006KT P6SM BKN015
     FM011300 19012G18KT P6SM BKN025
     FM011700 22014G21KT P6SM VCSH BKN040=

USA.gov is the U.S. government's official web portal to all federal, state and local government web resources and services.